sensor_id;sensor_type;location;lat;lon;timestamp;P1;durP1;ratioP1;P2;durP2;ratioP2
23432;SDS011;41331;45.412;10.992;2023-02-24T00:02:12;113.65;;;57.45;;
23432;SDS011;41331;45.412;10.992;2023-02-24T00:04:40;115.25;;;59.40;;
23432;SDS011;41331;45.412;10.992;2023-02-24T00:07:10;108.53;;;56.55;;
23432;SDS011;41331;45.412;10.992;2023-02-24T00:09:38;117.75;;;58.38;;
23432;SDS011;41331;45.412;10.992;2023-02-24T00:12:10;118.00;;;59.47;;
23432;SDS011;41331;45.412;10.992;2023-02-24T00:14:40;116.68;;;60.63;;
23432;SDS011;41331;45.412;10.992;2023-02-24T00:17:10;117.25;;;60.53;;
23432;SDS011;41331;45.412;10.992;2023-02-24T00:19:40;117.47;;;59.17;;
23432;SDS011;41331;45.412;10.992;2023-02-24T00:22:10;126.75;;;62.25;;
23432;SDS011;41331;45.412;10.992;2023-02-24T00:24:38;119.13;;;60.15;;
23432;SDS011;41331;45.412;10.992;2023-02-24T00:27:06;115.85;;;60.42;;
23432;SDS011;41331;45.412;10.992;2023-02-24T00:29:34;122.90;;;62.22;;
23432;SDS011;41331;45.412;10.992;2023-02-24T00:32:06;127.72;;;63.00;;
23432;SDS011;41331;45.412;10.992;2023-02-24T00:34:39;118.93;;;58.35;;
23432;SDS011;41331;45.412;10.992;2023-02-24T00:37:07;119.70;;;61.60;;
23432;SDS011;41331;45.412;10.992;2023-02-24T00:39:36;117.43;;;60.30;;
23432;SDS011;41331;45.412;10.992;2023-02-24T00:42:09;123.55;;;60.92;;
23432;SDS011;41331;45.412;10.992;2023-02-24T00:44:38;112.60;;;59.22;;
23432;SDS011;41331;45.412;10.992;2023-02-24T00:47:07;116.38;;;59.88;;
23432;SDS011;41331;45.412;10.992;2023-02-24T00:49:37;118.43;;;60.47;;
23432;SDS011;41331;45.412;10.992;2023-02-24T00:52:13;120.97;;;60.85;;
23432;SDS011;41331;45.412;10.992;2023-02-24T00:54:43;114.90;;;59.13;;
23432;SDS011;41331;45.412;10.992;2023-02-24T00:57:12;120.55;;;57.58;;
23432;SDS011;41331;45.412;10.992;2023-02-24T00:59:42;118.93;;;59.13;;
23432;SDS011;41331;45.412;10.992;2023-02-24T01:02:14;112.38;;;57.00;;
23432;SDS011;41331;45.412;10.992;2023-02-24T01:04:43;109.78;;;57.25;;
23432;SDS011;41331;45.412;10.992;2023-02-24T01:07:12;108.13;;;56.03;;
23432;SDS011;41331;45.412;10.992;2023-02-24T01:09:41;107.15;;;55.88;;
23432;SDS011;41331;45.412;10.992;2023-02-24T01:12:10;109.18;;;54.75;;
23432;SDS011;41331;45.412;10.992;2023-02-24T01:14:49;107.43;;;53.95;;
23432;SDS011;41331;45.412;10.992;2023-02-24T01:17:19;98.45;;;53.10;;
23432;SDS011;41331;45.412;10.992;2023-02-24T01:19:47;99.13;;;50.40;;
23432;SDS011;41331;45.412;10.992;2023-02-24T01:22:16;96.53;;;49.15;;
23432;SDS011;41331;45.412;10.992;2023-02-24T01:24:46;98.30;;;48.83;;
23432;SDS011;41331;45.412;10.992;2023-02-24T01:27:15;101.13;;;48.20;;
23432;SDS011;41331;45.412;10.992;2023-02-24T01:29:45;99.97;;;47.33;;
23432;SDS011;41331;45.412;10.992;2023-02-24T01:32:15;89.57;;;47.17;;
23432;SDS011;41331;45.412;10.992;2023-02-24T01:34:51;100.65;;;48.42;;
23432;SDS011;41331;45.412;10.992;2023-02-24T01:37:19;97.95;;;50.45;;
23432;SDS011;41331;45.412;10.992;2023-02-24T01:39:47;95.78;;;46.65;;
23432;SDS011;41331;45.412;10.992;2023-02-24T01:42:17;89.85;;;47.47;;
23432;SDS011;41331;45.412;10.992;2023-02-24T01:47:15;88.70;;;45.92;;
23432;SDS011;41331;45.412;10.992;2023-02-24T01:49:48;94.85;;;47.42;;
23432;SDS011;41331;45.412;10.992;2023-02-24T01:52:19;92.35;;;45.63;;
23432;SDS011;41331;45.412;10.992;2023-02-24T01:58:24;96.72;;;47.03;;
23432;SDS011;41331;45.412;10.992;2023-02-24T02:00:54;90.32;;;46.88;;
23432;SDS011;41331;45.412;10.992;2023-02-24T02:03:33;91.35;;;46.92;;
23432;SDS011;41331;45.412;10.992;2023-02-24T02:06:07;89.60;;;45.55;;
23432;SDS011;41331;45.412;10.992;2023-02-24T02:08:38;93.13;;;46.92;;
23432;SDS011;41331;45.412;10.992;2023-02-24T02:11:12;90.72;;;45.42;;
23432;SDS011;41331;45.412;10.992;2023-02-24T02:13:47;91.43;;;45.42;;
23432;SDS011;41331;45.412;10.992;2023-02-24T02:27:26;91.95;;;45.08;;
23432;SDS011;41331;45.412;10.992;2023-02-24T02:30:23;83.70;;;44.17;;
23432;SDS011;41331;45.412;10.992;2023-02-24T02:36:12;87.35;;;45.08;;
23432;SDS011;41331;45.412;10.992;2023-02-24T02:44:34;96.60;;;47.92;;
23432;SDS011;41331;45.412;10.992;2023-02-24T02:47:56;93.75;;;47.05;;
23432;SDS011;41331;45.412;10.992;2023-02-24T02:50:26;96.72;;;50.08;;
23432;SDS011;41331;45.412;10.992;2023-02-24T02:53:11;103.00;;;52.38;;
23432;SDS011;41331;45.412;10.992;2023-02-24T02:58:33;105.25;;;53.15;;
23432;SDS011;41331;45.412;10.992;2023-02-24T03:01:03;107.88;;;54.65;;
23432;SDS011;41331;45.412;10.992;2023-02-24T03:03:38;114.38;;;56.08;;
23432;SDS011;41331;45.412;10.992;2023-02-24T03:06:12;111.63;;;54.95;;
23432;SDS011;41331;45.412;10.992;2023-02-24T03:08:46;118.20;;;56.42;;
23432;SDS011;41331;45.412;10.992;2023-02-24T03:11:42;110.60;;;56.10;;
23432;SDS011;41331;45.412;10.992;2023-02-24T03:14:20;116.75;;;56.53;;
23432;SDS011;41331;45.412;10.992;2023-02-24T03:16:52;113.53;;;56.30;;
23432;SDS011;41331;45.412;10.992;2023-02-24T03:22:04;107.82;;;53.97;;
23432;SDS011;41331;45.412;10.992;2023-02-24T03:24:39;112.85;;;55.25;;
23432;SDS011;41331;45.412;10.992;2023-02-24T03:27:27;102.72;;;53.03;;
23432;SDS011;41331;45.412;10.992;2023-02-24T03:30:06;101.28;;;52.08;;
23432;SDS011;41331;45.412;10.992;2023-02-24T03:32:44;105.50;;;54.15;;
23432;SDS011;41331;45.412;10.992;2023-02-24T03:35:28;107.18;;;53.15;;
23432;SDS011;41331;45.412;10.992;2023-02-24T03:38:03;108.40;;;54.80;;
23432;SDS011;41331;45.412;10.992;2023-02-24T03:40:32;106.78;;;54.80;;
23432;SDS011;41331;45.412;10.992;2023-02-24T03:43:08;105.13;;;53.75;;
23432;SDS011;41331;45.412;10.992;2023-02-24T03:45:38;99.22;;;52.90;;
23432;SDS011;41331;45.412;10.992;2023-02-24T03:48:08;106.03;;;53.78;;
23432;SDS011;41331;45.412;10.992;2023-02-24T03:50:39;99.57;;;52.47;;
23432;SDS011;41331;45.412;10.992;2023-02-24T04:04:47;101.40;;;52.67;;
23432;SDS011;41331;45.412;10.992;2023-02-24T04:13:58;104.88;;;52.72;;
23432;SDS011;41331;45.412;10.992;2023-02-24T04:16:27;108.93;;;52.95;;
23432;SDS011;41331;45.412;10.992;2023-02-24T04:19:04;107.70;;;53.15;;
23432;SDS011;41331;45.412;10.992;2023-02-24T04:21:36;100.13;;;53.97;;
23432;SDS011;41331;45.412;10.992;2023-02-24T04:24:05;102.03;;;52.45;;
23432;SDS011;41331;45.412;10.992;2023-02-24T04:26:38;108.45;;;55.78;;
23432;SDS011;41331;45.412;10.992;2023-02-24T04:29:07;104.03;;;53.75;;
23432;SDS011;41331;45.412;10.992;2023-02-24T04:31:44;109.03;;;53.70;;
23432;SDS011;41331;45.412;10.992;2023-02-24T04:34:15;105.20;;;54.22;;
23432;SDS011;41331;45.412;10.992;2023-02-24T04:36:46;109.28;;;54.28;;
23432;SDS011;41331;45.412;10.992;2023-02-24T04:39:19;105.43;;;52.45;;
23432;SDS011;41331;45.412;10.992;2023-02-24T04:41:52;111.35;;;56.28;;
23432;SDS011;41331;45.412;10.992;2023-02-24T04:44:20;102.85;;;54.55;;
23432;SDS011;41331;45.412;10.992;2023-02-24T04:46:48;107.65;;;54.25;;
23432;SDS011;41331;45.412;10.992;2023-02-24T04:49:17;104.75;;;55.30;;
23432;SDS011;41331;45.412;10.992;2023-02-24T04:51:47;115.13;;;54.83;;
23432;SDS011;41331;45.412;10.992;2023-02-24T04:54:15;99.57;;;51.53;;
23432;SDS011;41331;45.412;10.992;2023-02-24T04:56:44;103.97;;;51.92;;
23432;SDS011;41331;45.412;10.992;2023-02-24T04:59:13;106.05;;;53.17;;
23432;SDS011;41331;45.412;10.992;2023-02-24T05:01:41;99.63;;;53.22;;
23432;SDS011;41331;45.412;10.992;2023-02-24T05:04:10;111.53;;;54.28;;
23432;SDS011;41331;45.412;10.992;2023-02-24T05:06:40;103.03;;;53.40;;
23432;SDS011;41331;45.412;10.992;2023-02-24T05:09:10;106.93;;;53.88;;
23432;SDS011;41331;45.412;10.992;2023-02-24T05:11:46;99.90;;;51.67;;
23432;SDS011;41331;45.412;10.992;2023-02-24T05:14:15;104.35;;;52.15;;
23432;SDS011;41331;45.412;10.992;2023-02-24T05:16:47;100.72;;;52.67;;
23432;SDS011;41331;45.412;10.992;2023-02-24T05:19:16;97.07;;;50.28;;
23432;SDS011;41331;45.412;10.992;2023-02-24T05:22:03;99.30;;;51.20;;
23432;SDS011;41331;45.412;10.992;2023-02-24T05:24:33;101.85;;;53.35;;
23432;SDS011;41331;45.412;10.992;2023-02-24T05:27:01;103.85;;;53.20;;
23432;SDS011;41331;45.412;10.992;2023-02-24T05:29:30;102.65;;;53.78;;
23432;SDS011;41331;45.412;10.992;2023-02-24T05:32:01;104.85;;;53.15;;
23432;SDS011;41331;45.412;10.992;2023-02-24T05:34:30;100.93;;;51.67;;
23432;SDS011;41331;45.412;10.992;2023-02-24T05:36:59;95.50;;;50.17;;
23432;SDS011;41331;45.412;10.992;2023-02-24T05:39:33;103.18;;;50.78;;
23432;SDS011;41331;45.412;10.992;2023-02-24T05:42:01;97.72;;;49.20;;
23432;SDS011;41331;45.412;10.992;2023-02-24T05:44:33;101.20;;;50.05;;
23432;SDS011;41331;45.412;10.992;2023-02-24T05:47:01;92.57;;;50.05;;
23432;SDS011;41331;45.412;10.992;2023-02-24T05:49:32;94.03;;;47.38;;
23432;SDS011;41331;45.412;10.992;2023-02-24T05:52:02;92.57;;;47.80;;
23432;SDS011;41331;45.412;10.992;2023-02-24T05:54:38;94.28;;;48.00;;
23432;SDS011;41331;45.412;10.992;2023-02-24T05:57:08;90.85;;;47.95;;
23432;SDS011;41331;45.412;10.992;2023-02-24T05:59:43;88.57;;;46.55;;
23432;SDS011;41331;45.412;10.992;2023-02-24T06:02:12;93.75;;;47.63;;
23432;SDS011;41331;45.412;10.992;2023-02-24T06:04:41;87.38;;;45.80;;
23432;SDS011;41331;45.412;10.992;2023-02-24T06:07:18;91.65;;;46.63;;
23432;SDS011;41331;45.412;10.992;2023-02-24T06:09:55;88.45;;;47.70;;
23432;SDS011;41331;45.412;10.992;2023-02-24T06:12:25;89.88;;;46.70;;
23432;SDS011;41331;45.412;10.992;2023-02-24T06:14:54;91.22;;;45.95;;
23432;SDS011;41331;45.412;10.992;2023-02-24T06:17:24;89.53;;;46.67;;
23432;SDS011;41331;45.412;10.992;2023-02-24T06:19:52;92.88;;;47.10;;
23432;SDS011;41331;45.412;10.992;2023-02-24T06:22:21;88.45;;;46.15;;
23432;SDS011;41331;45.412;10.992;2023-02-24T06:24:51;92.50;;;45.75;;
23432;SDS011;41331;45.412;10.992;2023-02-24T06:27:20;91.97;;;47.45;;
23432;SDS011;41331;45.412;10.992;2023-02-24T06:29:51;90.60;;;46.90;;
23432;SDS011;41331;45.412;10.992;2023-02-24T06:32:21;89.13;;;46.15;;
23432;SDS011;41331;45.412;10.992;2023-02-24T06:34:50;93.57;;;46.05;;
23432;SDS011;41331;45.412;10.992;2023-02-24T06:37:19;92.78;;;47.38;;
23432;SDS011;41331;45.412;10.992;2023-02-24T06:39:49;93.53;;;47.72;;
23432;SDS011;41331;45.412;10.992;2023-02-24T06:42:16;98.07;;;47.78;;
23432;SDS011;41331;45.412;10.992;2023-02-24T06:44:43;94.50;;;47.17;;
23432;SDS011;41331;45.412;10.992;2023-02-24T06:47:11;86.18;;;45.15;;
23432;SDS011;41331;45.412;10.992;2023-02-24T06:49:40;91.20;;;45.78;;
23432;SDS011;41331;45.412;10.992;2023-02-24T06:52:09;92.45;;;47.65;;
23432;SDS011;41331;45.412;10.992;2023-02-24T06:54:37;95.55;;;48.60;;
23432;SDS011;41331;45.412;10.992;2023-02-24T06:57:05;90.95;;;48.45;;
23432;SDS011;41331;45.412;10.992;2023-02-24T06:59:35;89.15;;;46.45;;
23432;SDS011;41331;45.412;10.992;2023-02-24T07:02:08;94.28;;;48.45;;
23432;SDS011;41331;45.412;10.992;2023-02-24T07:04:36;86.15;;;45.05;;
23432;SDS011;41331;45.412;10.992;2023-02-24T07:07:10;90.57;;;48.38;;
23432;SDS011;41331;45.412;10.992;2023-02-24T07:09:40;94.50;;;48.22;;
23432;SDS011;41331;45.412;10.992;2023-02-24T07:12:08;89.93;;;45.67;;
23432;SDS011;41331;45.412;10.992;2023-02-24T07:14:37;97.50;;;49.20;;
23432;SDS011;41331;45.412;10.992;2023-02-24T07:17:07;93.30;;;47.97;;
23432;SDS011;41331;45.412;10.992;2023-02-24T07:19:35;98.85;;;47.95;;
23432;SDS011;41331;45.412;10.992;2023-02-24T07:22:02;103.88;;;52.10;;
23432;SDS011;41331;45.412;10.992;2023-02-24T07:24:31;105.90;;;49.88;;
23432;SDS011;41331;45.412;10.992;2023-02-24T07:27:03;97.30;;;49.70;;
23432;SDS011;41331;45.412;10.992;2023-02-24T07:29:33;97.20;;;49.92;;
23432;SDS011;41331;45.412;10.992;2023-02-24T07:32:02;99.80;;;48.72;;
23432;SDS011;41331;45.412;10.992;2023-02-24T07:34:32;99.90;;;48.97;;
23432;SDS011;41331;45.412;10.992;2023-02-24T07:37:00;98.18;;;49.58;;
23432;SDS011;41331;45.412;10.992;2023-02-24T07:39:35;99.50;;;49.85;;
23432;SDS011;41331;45.412;10.992;2023-02-24T07:42:05;109.15;;;51.38;;
23432;SDS011;41331;45.412;10.992;2023-02-24T07:44:42;99.75;;;50.70;;
23432;SDS011;41331;45.412;10.992;2023-02-24T07:47:12;104.22;;;50.88;;
23432;SDS011;41331;45.412;10.992;2023-02-24T07:49:42;97.18;;;51.38;;
23432;SDS011;41331;45.412;10.992;2023-02-24T07:52:10;103.93;;;52.53;;
23432;SDS011;41331;45.412;10.992;2023-02-24T07:54:38;103.07;;;51.92;;
23432;SDS011;41331;45.412;10.992;2023-02-24T07:57:06;99.82;;;50.15;;
23432;SDS011;41331;45.412;10.992;2023-02-24T07:59:40;97.85;;;51.80;;
23432;SDS011;41331;45.412;10.992;2023-02-24T08:02:11;96.07;;;50.67;;
23432;SDS011;41331;45.412;10.992;2023-02-24T08:04:39;102.07;;;52.75;;
23432;SDS011;41331;45.412;10.992;2023-02-24T08:07:10;99.05;;;52.30;;
23432;SDS011;41331;45.412;10.992;2023-02-24T08:09:40;109.95;;;53.88;;
23432;SDS011;41331;45.412;10.992;2023-02-24T08:12:15;117.65;;;55.15;;
23432;SDS011;41331;45.412;10.992;2023-02-24T08:14:44;116.10;;;57.22;;
23432;SDS011;41331;45.412;10.992;2023-02-24T08:17:17;116.53;;;57.42;;
23432;SDS011;41331;45.412;10.992;2023-02-24T08:19:47;114.10;;;57.33;;
23432;SDS011;41331;45.412;10.992;2023-02-24T08:22:16;117.68;;;58.70;;
23432;SDS011;41331;45.412;10.992;2023-02-24T08:27:22;113.55;;;59.63;;
23432;SDS011;41331;45.412;10.992;2023-02-24T08:29:52;121.28;;;60.20;;
23432;SDS011;41331;45.412;10.992;2023-02-24T08:32:30;116.90;;;58.90;;
23432;SDS011;41331;45.412;10.992;2023-02-24T08:35:18;121.35;;;60.25;;
23432;SDS011;41331;45.412;10.992;2023-02-24T08:37:47;124.35;;;61.58;;
23432;SDS011;41331;45.412;10.992;2023-02-24T08:42:58;120.90;;;61.67;;
23432;SDS011;41331;45.412;10.992;2023-02-24T08:48:11;121.22;;;63.33;;
23432;SDS011;41331;45.412;10.992;2023-02-24T08:50:44;131.48;;;66.60;;
23432;SDS011;41331;45.412;10.992;2023-02-24T08:53:12;139.48;;;67.13;;
23432;SDS011;41331;45.412;10.992;2023-02-24T08:55:45;132.93;;;67.72;;
23432;SDS011;41331;45.412;10.992;2023-02-24T08:58:18;141.15;;;67.70;;
23432;SDS011;41331;45.412;10.992;2023-02-24T09:00:56;132.25;;;65.63;;
23432;SDS011;41331;45.412;10.992;2023-02-24T09:03:26;132.50;;;65.38;;
23432;SDS011;41331;45.412;10.992;2023-02-24T09:05:59;125.57;;;65.30;;
23432;SDS011;41331;45.412;10.992;2023-02-24T09:08:26;137.00;;;67.13;;
23432;SDS011;41331;45.412;10.992;2023-02-24T09:10:59;134.30;;;67.07;;
23432;SDS011;41331;45.412;10.992;2023-02-24T09:13:37;136.70;;;69.90;;
23432;SDS011;41331;45.412;10.992;2023-02-24T09:16:18;135.25;;;67.45;;
23432;SDS011;41331;45.412;10.992;2023-02-24T09:18:46;127.97;;;67.18;;
23432;SDS011;41331;45.412;10.992;2023-02-24T09:21:33;133.98;;;66.13;;
23432;SDS011;41331;45.412;10.992;2023-02-24T09:24:39;121.30;;;60.92;;
23432;SDS011;41331;45.412;10.992;2023-02-24T09:27:07;119.75;;;61.03;;
23432;SDS011;41331;45.412;10.992;2023-02-24T09:29:35;137.80;;;66.32;;
23432;SDS011;41331;45.412;10.992;2023-02-24T09:32:15;129.20;;;65.95;;
23432;SDS011;41331;45.412;10.992;2023-02-24T09:34:42;124.30;;;64.32;;
23432;SDS011;41331;45.412;10.992;2023-02-24T09:37:10;131.93;;;67.30;;
23432;SDS011;41331;45.412;10.992;2023-02-24T09:39:51;132.10;;;67.43;;
23432;SDS011;41331;45.412;10.992;2023-02-24T09:42:19;132.40;;;66.82;;
23432;SDS011;41331;45.412;10.992;2023-02-24T09:45:01;123.05;;;63.17;;
23432;SDS011;41331;45.412;10.992;2023-02-24T09:50:29;116.95;;;61.40;;
23432;SDS011;41331;45.412;10.992;2023-02-24T09:53:30;115.32;;;58.58;;
23432;SDS011;41331;45.412;10.992;2023-02-24T09:56:16;119.07;;;59.50;;
23432;SDS011;41331;45.412;10.992;2023-02-24T10:01:41;116.80;;;59.72;;
23432;SDS011;41331;45.412;10.992;2023-02-24T10:06:49;111.50;;;60.80;;
23432;SDS011;41331;45.412;10.992;2023-02-24T10:17:42;119.80;;;61.22;;
23432;SDS011;41331;45.412;10.992;2023-02-24T10:20:17;115.60;;;60.92;;
23432;SDS011;41331;45.412;10.992;2023-02-24T10:28:28;113.60;;;59.38;;
23432;SDS011;41331;45.412;10.992;2023-02-24T10:31:10;106.45;;;58.83;;
23432;SDS011;41331;45.412;10.992;2023-02-24T10:33:58;118.22;;;60.15;;
23432;SDS011;41331;45.412;10.992;2023-02-24T10:36:32;113.03;;;61.03;;
23432;SDS011;41331;45.412;10.992;2023-02-24T10:41:42;110.07;;;57.55;;
23432;SDS011;41331;45.412;10.992;2023-02-24T10:44:24;118.63;;;62.60;;
23432;SDS011;41331;45.412;10.992;2023-02-24T10:47:03;111.30;;;61.60;;
23432;SDS011;41331;45.412;10.992;2023-02-24T10:49:42;121.68;;;62.38;;
23432;SDS011;41331;45.412;10.992;2023-02-24T10:52:36;113.22;;;60.95;;
23432;SDS011;41331;45.412;10.992;2023-02-24T10:55:27;107.47;;;58.85;;
23432;SDS011;41331;45.412;10.992;2023-02-24T10:58:14;107.50;;;59.50;;
23432;SDS011;41331;45.412;10.992;2023-02-24T11:00:54;111.45;;;57.95;;
23432;SDS011;41331;45.412;10.992;2023-02-24T11:03:51;106.60;;;58.60;;
23432;SDS011;41331;45.412;10.992;2023-02-24T11:06:39;110.80;;;57.92;;
23432;SDS011;41331;45.412;10.992;2023-02-24T11:11:59;110.32;;;59.03;;
23432;SDS011;41331;45.412;10.992;2023-02-24T11:15:02;106.18;;;58.15;;
23432;SDS011;41331;45.412;10.992;2023-02-24T11:17:57;111.30;;;58.97;;
23432;SDS011;41331;45.412;10.992;2023-02-24T11:20:33;108.53;;;58.67;;
23432;SDS011;41331;45.412;10.992;2023-02-24T11:23:16;112.68;;;59.10;;
23432;SDS011;41331;45.412;10.992;2023-02-24T11:25:50;107.57;;;57.60;;
23432;SDS011;41331;45.412;10.992;2023-02-24T11:28:32;109.90;;;60.08;;
23432;SDS011;41331;45.412;10.992;2023-02-24T11:31:23;106.75;;;56.67;;
23432;SDS011;41331;45.412;10.992;2023-02-24T11:42:14;104.70;;;57.78;;
23432;SDS011;41331;45.412;10.992;2023-02-24T11:47:21;100.40;;;55.72;;
23432;SDS011;41331;45.412;10.992;2023-02-24T11:52:39;102.43;;;55.38;;
23432;SDS011;41331;45.412;10.992;2023-02-24T11:55:14;99.35;;;56.13;;
23432;SDS011;41331;45.412;10.992;2023-02-24T11:57:53;109.13;;;56.05;;
23432;SDS011;41331;45.412;10.992;2023-02-24T12:00:25;97.50;;;53.72;;
23432;SDS011;41331;45.412;10.992;2023-02-24T12:05:35;92.70;;;53.90;;
23432;SDS011;41331;45.412;10.992;2023-02-24T12:11:09;96.35;;;53.58;;
23432;SDS011;41331;45.412;10.992;2023-02-24T12:13:47;101.50;;;55.83;;
23432;SDS011;41331;45.412;10.992;2023-02-24T12:16:27;96.68;;;55.03;;
23432;SDS011;41331;45.412;10.992;2023-02-24T12:19:03;96.75;;;55.28;;
23432;SDS011;41331;45.412;10.992;2023-02-24T12:21:44;101.65;;;57.50;;
23432;SDS011;41331;45.412;10.992;2023-02-24T12:24:19;93.63;;;56.78;;
23432;SDS011;41331;45.412;10.992;2023-02-24T12:33:06;106.65;;;61.03;;
23432;SDS011;41331;45.412;10.992;2023-02-24T12:35:40;96.35;;;58.20;;
23432;SDS011;41331;45.412;10.992;2023-02-24T12:38:24;99.60;;;55.97;;
23432;SDS011;41331;45.412;10.992;2023-02-24T12:41:09;99.18;;;56.38;;
23432;SDS011;41331;45.412;10.992;2023-02-24T12:43:54;99.72;;;54.22;;
23432;SDS011;41331;45.412;10.992;2023-02-24T12:46:37;93.05;;;52.67;;
23432;SDS011;41331;45.412;10.992;2023-02-24T12:54:16;85.90;;;49.42;;
23432;SDS011;41331;45.412;10.992;2023-02-24T12:56:51;84.18;;;49.58;;
23432;SDS011;41331;45.412;10.992;2023-02-24T12:59:24;85.57;;;51.03;;
23432;SDS011;41331;45.412;10.992;2023-02-24T13:07:51;82.75;;;48.28;;
23432;SDS011;41331;45.412;10.992;2023-02-24T13:10:44;83.15;;;47.65;;
23432;SDS011;41331;45.412;10.992;2023-02-24T13:13:23;83.13;;;48.65;;
23432;SDS011;41331;45.412;10.992;2023-02-24T13:15:53;76.45;;;47.58;;
23432;SDS011;41331;45.412;10.992;2023-02-24T13:18:23;80.85;;;45.83;;
23432;SDS011;41331;45.412;10.992;2023-02-24T13:23:32;72.18;;;44.55;;
23432;SDS011;41331;45.412;10.992;2023-02-24T13:26:01;83.15;;;46.88;;
23432;SDS011;41331;45.412;10.992;2023-02-24T13:28:30;83.15;;;48.28;;
23432;SDS011;41331;45.412;10.992;2023-02-24T13:33:39;75.97;;;45.00;;
23432;SDS011;41331;45.412;10.992;2023-02-24T13:36:16;84.03;;;47.88;;
23432;SDS011;41331;45.412;10.992;2023-02-24T13:39:04;75.10;;;47.20;;
23432;SDS011;41331;45.412;10.992;2023-02-24T13:41:35;81.82;;;46.92;;
23432;SDS011;41331;45.412;10.992;2023-02-24T13:47:01;77.65;;;46.70;;
23432;SDS011;41331;45.412;10.992;2023-02-24T13:53:03;72.97;;;44.13;;
23432;SDS011;41331;45.412;10.992;2023-02-24T14:53:58;71.28;;;41.33;;
23432;SDS011;41331;45.412;10.992;2023-02-24T14:56:30;66.50;;;40.05;;
23432;SDS011;41331;45.412;10.992;2023-02-24T15:01:49;68.00;;;39.30;;
23432;SDS011;41331;45.412;10.992;2023-02-24T15:07:17;69.10;;;40.53;;
23432;SDS011;41331;45.412;10.992;2023-02-24T15:10:18;67.20;;;38.85;;
23432;SDS011;41331;45.412;10.992;2023-02-24T15:12:50;74.38;;;40.50;;
23432;SDS011;41331;45.412;10.992;2023-02-24T15:15:27;70.35;;;40.53;;
23432;SDS011;41331;45.412;10.992;2023-02-24T15:17:57;71.65;;;40.58;;
23432;SDS011;41331;45.412;10.992;2023-02-24T15:20:32;73.05;;;39.22;;
23432;SDS011;41331;45.412;10.992;2023-02-24T15:23:04;71.80;;;39.50;;
23432;SDS011;41331;45.412;10.992;2023-02-24T15:25:42;70.22;;;40.80;;
23432;SDS011;41331;45.412;10.992;2023-02-24T15:28:22;75.22;;;40.58;;
23432;SDS011;41331;45.412;10.992;2023-02-24T15:30:59;72.57;;;39.13;;
23432;SDS011;41331;45.412;10.992;2023-02-24T15:33:35;71.00;;;41.45;;
23432;SDS011;41331;45.412;10.992;2023-02-24T15:36:11;71.57;;;40.53;;
23432;SDS011;41331;45.412;10.992;2023-02-24T15:38:44;76.30;;;39.83;;
23432;SDS011;41331;45.412;10.992;2023-02-24T15:41:13;69.40;;;39.22;;
23432;SDS011;41331;45.412;10.992;2023-02-24T15:43:44;71.47;;;40.28;;
23432;SDS011;41331;45.412;10.992;2023-02-24T15:46:36;67.50;;;39.67;;
23432;SDS011;41331;45.412;10.992;2023-02-24T15:49:04;75.88;;;40.42;;
23432;SDS011;41331;45.412;10.992;2023-02-24T15:57:16;73.15;;;40.60;;
23432;SDS011;41331;45.412;10.992;2023-02-24T15:59:44;64.18;;;38.40;;
23432;SDS011;41331;45.412;10.992;2023-02-24T16:02:13;72.40;;;40.78;;
23432;SDS011;41331;45.412;10.992;2023-02-24T16:04:46;73.13;;;40.58;;
23432;SDS011;41331;45.412;10.992;2023-02-24T16:07:15;73.65;;;39.53;;
23432;SDS011;41331;45.412;10.992;2023-02-24T16:09:49;72.30;;;41.47;;
23432;SDS011;41331;45.412;10.992;2023-02-24T16:12:21;74.10;;;40.88;;
23432;SDS011;41331;45.412;10.992;2023-02-24T16:14:54;74.20;;;40.35;;
23432;SDS011;41331;45.412;10.992;2023-02-24T16:17:38;74.45;;;39.30;;
23432;SDS011;41331;45.412;10.992;2023-02-24T16:20:11;68.80;;;37.97;;
23432;SDS011;41331;45.412;10.992;2023-02-24T16:22:41;68.70;;;37.78;;
23432;SDS011;41331;45.412;10.992;2023-02-24T16:25:13;73.57;;;38.25;;
23432;SDS011;41331;45.412;10.992;2023-02-24T16:27:42;68.33;;;37.50;;
23432;SDS011;41331;45.412;10.992;2023-02-24T16:30:16;66.40;;;38.15;;
23432;SDS011;41331;45.412;10.992;2023-02-24T16:32:48;65.35;;;37.92;;
23432;SDS011;41331;45.412;10.992;2023-02-24T16:35:16;66.28;;;37.53;;
23432;SDS011;41331;45.412;10.992;2023-02-24T16:37:44;67.10;;;38.30;;
23432;SDS011;41331;45.412;10.992;2023-02-24T16:40:17;65.13;;;38.05;;
23432;SDS011;41331;45.412;10.992;2023-02-24T16:42:57;66.80;;;37.40;;
23432;SDS011;41331;45.412;10.992;2023-02-24T16:45:25;67.13;;;38.92;;
23432;SDS011;41331;45.412;10.992;2023-02-24T16:47:54;66.95;;;37.80;;
23432;SDS011;41331;45.412;10.992;2023-02-24T16:50:35;69.68;;;38.05;;
23432;SDS011;41331;45.412;10.992;2023-02-24T16:53:06;70.43;;;37.15;;
23432;SDS011;41331;45.412;10.992;2023-02-24T16:55:35;67.05;;;39.20;;
23432;SDS011;41331;45.412;10.992;2023-02-24T16:58:02;68.55;;;38.58;;
23432;SDS011;41331;45.412;10.992;2023-02-24T17:00:29;69.35;;;38.33;;
23432;SDS011;41331;45.412;10.992;2023-02-24T17:02:57;77.43;;;40.95;;
23432;SDS011;41331;45.412;10.992;2023-02-24T17:05:25;74.68;;;39.78;;
23432;SDS011;41331;45.412;10.992;2023-02-24T17:07:54;70.28;;;39.95;;
23432;SDS011;41331;45.412;10.992;2023-02-24T17:10:23;66.82;;;38.65;;
23432;SDS011;41331;45.412;10.992;2023-02-24T17:12:51;66.22;;;37.22;;
23432;SDS011;41331;45.412;10.992;2023-02-24T17:15:20;67.93;;;37.90;;
23432;SDS011;41331;45.412;10.992;2023-02-24T17:17:49;73.43;;;39.63;;
23432;SDS011;41331;45.412;10.992;2023-02-24T17:20:17;72.72;;;39.00;;
23432;SDS011;41331;45.412;10.992;2023-02-24T17:22:46;68.60;;;39.70;;
23432;SDS011;41331;45.412;10.992;2023-02-24T17:25:20;68.25;;;39.60;;
23432;SDS011;41331;45.412;10.992;2023-02-24T17:27:49;71.22;;;40.35;;
23432;SDS011;41331;45.412;10.992;2023-02-24T17:30:21;71.07;;;41.00;;
23432;SDS011;41331;45.412;10.992;2023-02-24T17:32:50;69.93;;;40.05;;
23432;SDS011;41331;45.412;10.992;2023-02-24T17:35:20;67.25;;;40.72;;
23432;SDS011;41331;45.412;10.992;2023-02-24T17:37:47;75.15;;;41.88;;
23432;SDS011;41331;45.412;10.992;2023-02-24T17:40:15;78.57;;;41.83;;
23432;SDS011;41331;45.412;10.992;2023-02-24T17:42:43;73.47;;;41.03;;
23432;SDS011;41331;45.412;10.992;2023-02-24T17:45:11;76.72;;;41.80;;
23432;SDS011;41331;45.412;10.992;2023-02-24T17:47:39;77.78;;;42.25;;
23432;SDS011;41331;45.412;10.992;2023-02-24T17:50:08;72.15;;;42.35;;
23432;SDS011;41331;45.412;10.992;2023-02-24T17:52:37;76.25;;;42.53;;
23432;SDS011;41331;45.412;10.992;2023-02-24T17:55:04;74.47;;;42.42;;
23432;SDS011;41331;45.412;10.992;2023-02-24T17:57:33;71.93;;;40.78;;
23432;SDS011;41331;45.412;10.992;2023-02-24T18:00:01;73.88;;;42.47;;
23432;SDS011;41331;45.412;10.992;2023-02-24T18:02:38;74.95;;;41.67;;